| time (UTC) | temp F | wind direction | speed MPH | gust MPH | rain 1hr in | rain 24hr in | rain mn in | humidity % | barometer mb |
| 20260510024031 | 53 | 228 | 0.0 | 0.0 | 0.00 | 0.00 | 0.16 | 86 | 1004.8 |
| 20260510023531 | 53 | 228 | 0.0 | 0.0 | 0.00 | 0.00 | 0.16 | 86 | 1004.7 |
| 20260510023031 | 53 | 216 | 0.0 | 0.0 | 0.00 | 0.00 | 0.16 | 86 | 1004.6 |
| 20260510022533 | 53 | 214 | 0.0 | 0.0 | 0.00 | 0.00 | 0.16 | 86 | 1004.5 |
| 20260510022031 | 53 | 190 | 0.0 | 0.0 | 0.00 | 0.00 | 0.16 | 86 | 1004.2 |
| 20260510021531 | 53 | 211 | 0.0 | 0.0 | 0.00 | 0.00 | 0.16 | 86 | 1004.3 |
| 20260510021029 | 53 | 195 | 0.0 | 0.0 | 0.00 | 0.00 | 0.16 | 85 | 1004.2 |
| 20260510020530 | 54 | 210 | 0.0 | 0.0 | 0.00 | 0.00 | 0.16 | 86 | 1004.3 |
| 20260510020030 | 53 | 237 | 0.0 | 0.0 | 0.00 | 0.00 | 0.16 | 86 | 1004.3 |
| 20260510015530 | 53 | 213 | 0.0 | 0.0 | 0.00 | 0.00 | 0.16 | 87 | 1004.3 |
| 20260510015029 | 53 | 212 | 0.0 | 0.0 | 0.00 | 0.00 | 0.16 | 87 | 1004.3 |
| 20260510014529 | 53 | 171 | 0.0 | 0.0 | 0.00 | 0.00 | 0.16 | 87 | 1004.3 |
| 20260510014030 | 53 | 219 | 0.0 | 0.0 | 0.00 | 0.00 | 0.16 | 87 | 1004.2 |
| 20260510013529 | 53 | 196 | 0.0 | 0.0 | 0.00 | 0.00 | 0.16 | 87 | 1004.2 |
| 20260510013031 | 53 | 219 | 0.0 | 0.0 | 0.00 | 0.00 | 0.16 | 88 | 1004.1 |
| 20260510012528 | 53 | 204 | 0.0 | 0.0 | 0.00 | 0.00 | 0.16 | 88 | 1004.1 |
| 20260510012029 | 52 | 219 | 0.0 | 0.0 | 0.00 | 0.00 | 0.16 | 88 | 1004.1 |
| 20260510011528 | 52 | 190 | 0.0 | 0.0 | 0.00 | 0.00 | 0.16 | 88 | 1004.0 |
| 20260510011028 | 52 | 200 | 0.0 | 0.0 | 0.00 | 0.00 | 0.16 | 88 | 1004.0 |
| 20260510010528 | 52 | 235 | 0.0 | 0.0 | 0.00 | 0.00 | 0.16 | 88 | 1003.9 |
| 20260510010027 | 52 | 215 | 0.0 | 0.0 | 0.00 | 0.00 | 0.16 | 88 | 1003.9 |
| 20260510005527 | 52 | 219 | 0.0 | 0.0 | 0.00 | 0.00 | 0.16 | 88 | 1003.9 |
| 20260510005026 | 52 | 234 | 0.0 | 0.0 | 0.00 | 0.00 | 0.16 | 88 | 1003.7 |
| 20260510004527 | 52 | 236 | 0.0 | 0.0 | 0.00 | 0.00 | 0.16 | 88 | 1003.4 |
| 20260510004027 | 52 | 188 | 0.0 | 0.0 | 0.00 | 0.00 | 0.16 | 87 | 1003.3 |
| 20260510003527 | 52 | 159 | 0.0 | 0.0 | 0.00 | 0.00 | 0.16 | 87 | 1003.2 |
| 20260510003035 | 52 | 187 | 0.0 | 0.0 | 0.00 | 0.00 | 0.16 | 87 | 1003.2 |
| 20260510002526 | 52 | 227 | 0.0 | 0.0 | 0.00 | 0.00 | 0.16 | 87 | 1003.2 |
| 20260510002026 | 52 | 172 | 0.0 | 0.0 | 0.00 | 0.00 | 0.16 | 88 | 1003.1 |
| 20260510001526 | 52 | 219 | 0.0 | 0.0 | 0.00 | 0.00 | 0.16 | 88 | 1003.3 |
| 20260510001026 | 52 | 179 | 0.0 | 0.0 | 0.00 | 0.00 | 0.16 | 88 | 1003.3 |
| 20260510000525 | 52 | 163 | 0.0 | 0.0 | 0.00 | 0.00 | 0.16 | 88 | 1003.3 |
| 20260510000026 | 52 | 171 | 0.0 | 0.0 | 0.00 | 0.00 | 0.16 | 88 | 1003.4 |
| 20260509235525 | 52 | 168 | 0.0 | 0.0 | 0.00 | 0.00 | 0.16 | 88 | 1003.3 |
| 20260509235025 | 52 | 174 | 0.0 | 0.0 | 0.00 | 0.00 | 0.16 | 87 | 1003.1 |
| 20260509234531 | 52 | 163 | 0.0 | 0.0 | 0.00 | 0.00 | 0.16 | 87 | 1003.0 |
| 20260509234025 | 52 | 212 | 0.0 | 0.0 | 0.00 | 0.00 | 0.16 | 87 | 1003.2 |
| 20260509233524 | 52 | 216 | 0.0 | 0.0 | 0.00 | 0.00 | 0.15 | 86 | 1003.5 |
| 20260509233025 | 52 | 238 | 0.0 | 0.0 | 0.00 | 0.00 | 0.14 | 86 | 1004.0 |
| 20260509232524 | 52 | 259 | 0.0 | 0.0 | 0.00 | 0.00 | 0.14 | 86 | 1003.9 |
| 20260509232028 | 52 | 261 | 0.0 | 0.0 | 0.00 | 0.00 | 0.12 | 85 | 1004.0 |
| 20260509231523 | 52 | 309 | 0.0 | 0.0 | 0.00 | 0.00 | 0.12 | 85 | 1004.1 |
| 20260509231023 | 53 | 278 | 0.0 | 0.0 | 0.00 | 0.00 | 0.10 | 84 | 1004.0 |
| 20260509230523 | 53 | 260 | 0.0 | 0.0 | 0.00 | 0.00 | 0.09 | 82 | 1004.2 |
| 20260509230023 | 55 | 282 | 0.0 | 0.0 | 0.00 | 0.00 | 0.07 | 79 | 1004.6 |
| 20260509225523 | 59 | 295 | 0.0 | 0.0 | 0.00 | 0.00 | 0.02 | 73 | 1004.0 |
| 20260509225022 | 60 | 223 | 0.0 | 0.0 | 0.00 | 0.00 | 0.00 | 73 | 1002.1 |
| 20260509224522 | 61 | 186 | 0.0 | 0.0 | 0.00 | 0.00 | 0.00 | 72 | 1002.0 |
| 20260509224023 | 62 | 208 | 0.0 | 0.0 | 0.00 | 0.00 | 0.00 | 69 | 1001.5 |
| 20260509223523 | 62 | 201 | 0.0 | 0.0 | 0.00 | 0.00 | 0.00 | 68 | 1001.3 |
| 20260509223023 | 62 | 200 | 0.0 | 0.0 | 0.00 | 0.00 | 0.00 | 68 | 1001.2 |
| 20260509222522 | 62 | 219 | 0.0 | 0.0 | 0.00 | 0.00 | 0.00 | 67 | 1001.2 |
| 20260509222022 | 62 | 169 | 0.0 | 0.0 | 0.00 | 0.00 | 0.00 | 67 | 1001.1 |
| 20260509221522 | 62 | 173 | 0.0 | 0.0 | 0.00 | 0.00 | 0.00 | 67 | 1001.0 |
| 20260509221020 | 62 | 172 | 0.0 | 0.0 | 0.00 | 0.00 | 0.00 | 67 | 1001.2 |
| 20260509220519 | 62 | 161 | 0.0 | 0.0 | 0.00 | 0.00 | 0.00 | 66 | 1001.2 |
| 20260509220025 | 63 | 159 | 0.0 | 0.0 | 0.00 | 0.00 | 0.00 | 66 | 1001.3 |
| 20260509215519 | 63 | 150 | 0.0 | 0.0 | 0.00 | 0.00 | 0.00 | 66 | 1001.3 |
| 20260509215021 | 63 | 182 | 0.0 | 0.0 | 0.00 | 0.00 | 0.00 | 66 | 1001.5 |
| 20260509214519 | 63 | 234 | 0.0 | 0.0 | 0.00 | 0.00 | 0.00 | 65 | 1001.5 |
| 20260509214019 | 63 | 169 | 0.0 | 0.0 | 0.00 | 0.00 | 0.00 | 65 | 1001.4 |
| 20260509213519 | 63 | 158 | 0.0 | 0.0 | 0.00 | 0.00 | 0.00 | 65 | 1001.4 |
| 20260509213018 | 63 | 171 | 0.0 | 0.0 | 0.00 | 0.00 | 0.00 | 65 | 1001.3 |
| 20260509212518 | 63 | 211 | 0.0 | 0.0 | 0.00 | 0.00 | 0.00 | 65 | 1001.5 |
| 20260509212020 | 63 | 210 | 0.0 | 0.0 | 0.00 | 0.00 | 0.00 | 65 | 1001.4 |
| 20260509211516 | 63 | 203 | 0.0 | 0.0 | 0.00 | 0.00 | 0.00 | 65 | 1001.6 |
| 20260509211016 | 63 | 224 | 0.0 | 0.0 | 0.00 | 0.00 | 0.00 | 65 | 1001.9 |
| 20260509210518 | 63 | 204 | 0.0 | 0.0 | 0.00 | 0.00 | 0.00 | 66 | 1002.0 |
| 20260509210015 | 63 | 223 | 0.0 | 0.0 | 0.00 | 0.00 | 0.00 | 66 | 1001.9 |
| 20260509205515 | 63 | 195 | 0.0 | 0.0 | 0.00 | 0.00 | 0.00 | 66 | 1001.8 |
| 20260509205014 | 63 | 229 | 0.0 | 0.0 | 0.00 | 0.00 | 0.00 | 67 | 1001.9 |
| 20260509204514 | 63 | 186 | 0.0 | 0.0 | 0.00 | 0.00 | 0.00 | 67 | 1002.0 |
| 20260509204015 | 63 | 162 | 0.0 | 0.0 | 0.00 | 0.00 | 0.00 | 67 | 1002.0 |
| 20260509203515 | 63 | 146 | 0.0 | 0.0 | 0.00 | 0.00 | 0.00 | 67 | 1001.9 |
| 20260509203014 | 63 | 211 | 0.0 | 0.0 | 0.00 | 0.00 | 0.00 | 66 | 1001.9 |
| 20260509202513 | 63 | 176 | 0.0 | 0.0 | 0.00 | 0.00 | 0.00 | 66 | 1002.1 |
| 20260509202015 | 63 | 249 | 0.0 | 0.0 | 0.00 | 0.00 | 0.00 | 64 | 1002.1 |
| 20260509201513 | 64 | 208 | 0.0 | 0.0 | 0.00 | 0.00 | 0.00 | 64 | 1002.1 |
| 20260509201015 | 64 | 216 | 0.0 | 0.0 | 0.00 | 0.00 | 0.00 | 63 | 1002.1 |
| 20260509200513 | 65 | 193 | 0.0 | 0.0 | 0.00 | 0.00 | 0.00 | 63 | 1002.2 |
| 20260509200012 | 65 | 210 | 0.0 | 0.0 | 0.00 | 0.00 | 0.00 | 63 | 1002.1 |
| 20260509195513 | 65 | 252 | 0.0 | 0.0 | 0.00 | 0.00 | 0.00 | 62 | 1002.2 |
| 20260509195012 | 65 | 274 | 0.0 | 0.0 | 0.00 | 0.00 | 0.00 | 62 | 1002.2 |
| 20260509194516 | 65 | 235 | 0.0 | 0.0 | 0.00 | 0.00 | 0.00 | 62 | 1002.1 |
| 20260509194012 | 65 | 186 | 0.0 | 0.0 | 0.00 | 0.00 | 0.00 | 62 | 1001.9 |
| 20260509193515 | 65 | 191 | 0.0 | 0.0 | 0.00 | 0.00 | 0.00 | 63 | 1002.2 |
| 20260509193010 | 65 | 236 | 0.0 | 0.0 | 0.00 | 0.00 | 0.00 | 64 | 1002.5 |
| 20260509192510 | 64 | 217 | 0.0 | 0.0 | 0.00 | 0.00 | 0.00 | 63 | 1002.7 |
| 20260509192012 | 64 | 265 | 0.0 | 0.0 | 0.00 | 0.00 | 0.00 | 63 | 1002.6 |
| 20260509191513 | 64 | 268 | 0.0 | 0.0 | 0.00 | 0.00 | 0.00 | 63 | 1002.7 |
| 20260509191007 | 64 | 258 | 0.0 | 0.0 | 0.00 | 0.00 | 0.00 | 64 | 1002.8 |
| 20260509190505 | 63 | 224 | 0.0 | 0.0 | 0.00 | 0.00 | 0.00 | 63 | 1002.9 |
| 20260509190014 | 63 | 211 | 0.0 | 0.0 | 0.00 | 0.00 | 0.00 | 63 | 1003.0 |
| 20260509185505 | 64 | 197 | 0.0 | 0.0 | 0.00 | 0.00 | 0.00 | 62 | 1003.0 |
| 20260509185004 | 64 | 182 | 0.0 | 0.0 | 0.00 | 0.00 | 0.00 | 65 | 1003.0 |
| 20260509184503 | 63 | 236 | 0.0 | 0.0 | 0.00 | 0.00 | 0.00 | 66 | 1003.2 |
| 20260509184003 | 63 | 217 | 0.0 | 0.0 | 0.00 | 0.00 | 0.00 | 66 | 1003.2 |
| 20260509183502 | 63 | 161 | 0.0 | 0.0 | 0.00 | 0.00 | 0.00 | 67 | 1003.2 |
| 20260509183002 | 63 | 212 | 0.0 | 0.0 | 0.00 | 0.00 | 0.00 | 66 | 1003.1 |
| 20260509182503 | 63 | 210 | 0.0 | 0.0 | 0.00 | 0.00 | 0.00 | 66 | 1003.2 |
| 20260509182002 | 63 | 187 | 0.0 | 0.0 | 0.00 | 0.00 | 0.00 | 68 | 1003.3 |
| 20260509181603 | 62 | 221 | 0.0 | 0.0 | 0.00 | 0.00 | 0.00 | 68 | 1003.2 |
| 20260509181100 | 63 | 184 | 0.0 | 0.0 | 0.00 | 0.00 | 0.00 | 67 | 1003.3 |
| 20260509180558 | 63 | 177 | 0.0 | 0.0 | 0.00 | 0.00 | 0.00 | 68 | 1003.3 |
| 20260509180101 | 63 | 199 | 0.0 | 0.0 | 0.00 | 0.00 | 0.00 | 68 | 1003.4 |
| 20260509175557 | 62 | 209 | 0.0 | 0.0 | 0.00 | 0.00 | 0.00 | 67 | 1003.4 |
| 20260509175057 | 63 | 212 | 0.0 | 0.0 | 0.00 | 0.00 | 0.00 | 66 | 1003.6 |
| 20260509174556 | 63 | 242 | 0.0 | 0.0 | 0.00 | 0.00 | 0.00 | 67 | 1003.6 |
| 20260509174059 | 63 | 277 | 0.0 | 0.0 | 0.00 | 0.00 | 0.00 | 67 | 1003.9 |
| 20260509173554 | 62 | 238 | 0.0 | 0.0 | 0.00 | 0.00 | 0.00 | 66 | 1004.0 |
| 20260509173054 | 62 | 240 | 0.0 | 0.0 | 0.00 | 0.00 | 0.00 | 66 | 1004.1 |
| 20260509172553 | 62 | 180 | 0.0 | 0.0 | 0.00 | 0.00 | 0.00 | 66 | 1004.0 |
| 20260509172055 | 62 | 208 | 0.0 | 0.0 | 0.00 | 0.00 | 0.00 | 66 | 1004.1 |
| 20260509171553 | 62 | 195 | 0.0 | 0.0 | 0.00 | 0.00 | 0.00 | 66 | 1004.0 |
| 20260509171052 | 62 | 198 | 0.0 | 0.0 | 0.00 | 0.00 | 0.00 | 65 | 1004.0 |
| 20260509170552 | 62 | 260 | 0.0 | 0.0 | 0.00 | 0.00 | 0.00 | 66 | 1004.1 |
| 20260509170053 | 62 | 247 | 0.0 | 0.0 | 0.00 | 0.00 | 0.00 | 67 | 1004.0 |
| 20260509165552 | 62 | 238 | 0.0 | 0.0 | 0.00 | 0.00 | 0.00 | 67 | 1004.0 |
| 20260509165050 | 62 | 264 | 0.0 | 0.0 | 0.00 | 0.00 | 0.00 | 68 | 1004.2 |
| 20260509164550 | 62 | 240 | 0.0 | 0.0 | 0.00 | 0.00 | 0.00 | 67 | 1004.3 |
| 20260509164050 | 62 | 199 | 0.0 | 0.0 | 0.00 | 0.00 | 0.00 | 67 | 1004.4 |
| 20260509163548 | 62 | 227 | 0.0 | 0.0 | 0.00 | 0.00 | 0.00 | 69 | 1004.4 |
| 20260509163046 | 61 | 202 | 0.0 | 0.0 | 0.00 | 0.00 | 0.00 | 69 | 1004.6 |
| 20260509162551 | 61 | 199 | 0.0 | 0.0 | 0.00 | 0.00 | 0.00 | 69 | 1004.6 |
| 20260509162047 | 61 | 246 | 0.0 | 0.0 | 0.00 | 0.00 | 0.00 | 69 | 1004.6 |
| 20260509161545 | 61 | 198 | 0.0 | 0.0 | 0.00 | 0.00 | 0.00 | 70 | 1004.6 |
| 20260509161043 | 60 | 171 | 0.0 | 0.0 | 0.00 | 0.00 | 0.00 | 70 | 1004.6 |
| 20260509160546 | 60 | 223 | 0.0 | 0.0 | 0.00 | 0.00 | 0.00 | 70 | 1004.6 |
| 20260509160043 | 60 | 200 | 0.0 | 0.0 | 0.00 | 0.00 | 0.00 | 69 | 1004.6 |
| 20260509155542 | 60 | 158 | 0.0 | 0.0 | 0.00 | 0.00 | 0.00 | 70 | 1004.6 |
| 20260509155042 | 59 | 231 | 0.0 | 0.0 | 0.00 | 0.00 | 0.00 | 71 | 1004.7 |
| 20260509154545 | 59 | 176 | 0.0 | 0.0 | 0.00 | 0.00 | 0.00 | 69 | 1004.8 |
| 20260509154045 | 59 | 212 | 0.0 | 0.0 | 0.00 | 0.00 | 0.00 | 70 | 1005.0 |
| 20260509153542 | 60 | 259 | 0.0 | 0.0 | 0.00 | 0.00 | 0.00 | 70 | 1004.9 |
| 20260509153055 | 60 | 190 | 0.0 | 0.0 | 0.00 | 0.00 | 0.00 | 72 | 1004.9 |
| 20260509152540 | 60 | 169 | 0.0 | 0.0 | 0.00 | 0.00 | 0.00 | 71 | 1004.9 |
| 20260509152040 | 59 | 214 | 0.0 | 0.0 | 0.00 | 0.00 | 0.00 | 72 | 1004.9 |
| 20260509151537 | 59 | 217 | 0.0 | 0.0 | 0.00 | 0.00 | 0.00 | 73 | 1005.0 |
| 20260509151037 | 58 | 199 | 0.0 | 0.0 | 0.00 | 0.00 | 0.00 | 73 | 1005.0 |
| 20260509150537 | 58 | 180 | 0.0 | 0.0 | 0.00 | 0.00 | 0.00 | 72 | 1005.0 |
| 20260509150037 | 58 | 188 | 0.0 | 0.0 | 0.00 | 0.00 | 0.00 | 72 | 1005.0 |
| 20260509145537 | 58 | 180 | 0.0 | 0.0 | 0.00 | 0.00 | 0.00 | 73 | 1005.0 |
| 20260509145037 | 58 | 274 | 0.0 | 0.0 | 0.00 | 0.00 | 0.00 | 73 | 1005.0 |
| 20260509144536 | 58 | 200 | 0.0 | 0.0 | 0.00 | 0.00 | 0.00 | 73 | 1005.0 |
| 20260509144036 | 58 | 267 | 0.0 | 0.0 | 0.00 | 0.00 | 0.00 | 74 | 1005.0 |
| 20260509143535 | 58 | 180 | 0.0 | 0.0 | 0.00 | 0.00 | 0.00 | 74 | 1005.0 |
| 20260509143035 | 57 | 211 | 0.0 | 0.0 | 0.00 | 0.00 | 0.00 | 73 | 1005.1 |
| 20260509142534 | 57 | 191 | 0.0 | 0.0 | 0.00 | 0.00 | 0.00 | 74 | 1005.1 |
| 20260509142033 | 57 | 186 | 0.0 | 0.0 | 0.00 | 0.00 | 0.00 | 75 | 1005.1 |
| 20260509141532 | 57 | 174 | 0.0 | 0.0 | 0.00 | 0.00 | 0.00 | 75 | 1005.2 |
| 20260509141034 | 57 | 221 | 0.0 | 0.0 | 0.00 | 0.00 | 0.00 | 76 | 1005.2 |
| 20260509140530 | 57 | 169 | 0.0 | 0.0 | 0.00 | 0.00 | 0.00 | 78 | 1005.3 |
| 20260509140035 | 56 | 225 | 0.0 | 0.0 | 0.00 | 0.00 | 0.00 | 78 | 1005.2 |
| 20260509135530 | 56 | 200 | 0.0 | 0.0 | 0.00 | 0.00 | 0.00 | 78 | 1005.4 |
| 20260509135029 | 56 | 215 | 0.0 | 0.0 | 0.00 | 0.00 | 0.00 | 78 | 1005.3 |
| 20260509134530 | 56 | 173 | 0.0 | 0.0 | 0.00 | 0.00 | 0.00 | 78 | 1005.4 |
| 20260509134029 | 56 | 190 | 0.0 | 0.0 | 0.00 | 0.00 | 0.00 | 78 | 1005.4 |
| 20260509133530 | 56 | 179 | 0.0 | 0.0 | 0.00 | 0.00 | 0.00 | 78 | 1005.4 |
| 20260509133029 | 56 | 179 | 0.0 | 0.0 | 0.00 | 0.00 | 0.00 | 78 | 1005.4 |
| 20260509132528 | 56 | 183 | 0.0 | 0.0 | 0.00 | 0.00 | 0.00 | 78 | 1005.4 |
| 20260509132030 | 56 | 182 | 0.0 | 0.0 | 0.00 | 0.00 | 0.00 | 78 | 1005.5 |
| 20260509131533 | 56 | 219 | 0.0 | 0.0 | 0.00 | 0.00 | 0.00 | 79 | 1005.5 |
| 20260509131026 | 55 | 159 | 0.0 | 0.0 | 0.00 | 0.00 | 0.00 | 80 | 1005.4 |
| 20260509130526 | 55 | 172 | 0.0 | 0.0 | 0.00 | 0.00 | 0.00 | 80 | 1005.4 |
| 20260509130023 | 55 | 184 | 0.0 | 0.0 | 0.00 | 0.00 | 0.00 | 80 | 1005.5 |
| 20260509125524 | 54 | 174 | 0.0 | 0.0 | 0.00 | 0.00 | 0.00 | 81 | 1005.6 |
| 20260509125023 | 54 | 186 | 0.0 | 0.0 | 0.00 | 0.00 | 0.00 | 81 | 1005.6 |
| 20260509124520 | 53 | 156 | 0.0 | 0.0 | 0.00 | 0.00 | 0.00 | 81 | 1005.7 |
| 20260509124018 | 53 | 178 | 0.0 | 0.0 | 0.00 | 0.00 | 0.00 | 81 | 1005.8 |
| 20260509123518 | 53 | 153 | 0.0 | 0.0 | 0.00 | 0.00 | 0.00 | 82 | 1005.8 |
| 20260509123019 | 52 | 171 | 0.0 | 0.0 | 0.00 | 0.00 | 0.00 | 82 | 1005.8 |
| 20260509122515 | 52 | 172 | 0.0 | 0.0 | 0.00 | 0.00 | 0.00 | 82 | 1006.0 |
| 20260509122014 | 52 | 156 | 0.0 | 0.0 | 0.00 | 0.00 | 0.00 | 82 | 1006.0 |
| 20260509121514 | 51 | 166 | 0.0 | 0.0 | 0.00 | 0.00 | 0.00 | 82 | 1006.0 |
| 20260509121012 | 51 | 144 | 0.0 | 0.0 | 0.00 | 0.00 | 0.00 | 82 | 1006.0 |
| 20260509120513 | 51 | 155 | 0.0 | 0.0 | 0.00 | 0.00 | 0.00 | 82 | 1006.0 |
| 20260509120011 | 51 | 146 | 0.0 | 0.0 | 0.00 | 0.00 | 0.00 | 83 | 1006.1 |
| 20260509115510 | 50 | 183 | 0.0 | 0.0 | 0.00 | 0.00 | 0.00 | 83 | 1006.1 |
| 20260509115009 | 50 | 150 | 0.0 | 0.0 | 0.00 | 0.00 | 0.00 | 83 | 1006.1 |
| 20260509114508 | 50 | 171 | 0.0 | 0.0 | 0.00 | 0.00 | 0.00 | 83 | 1006.0 |
| 20260509114010 | 49 | 159 | 0.0 | 0.0 | 0.00 | 0.00 | 0.00 | 84 | 1006.0 |
| 20260509113506 | 49 | 173 | 0.0 | 0.0 | 0.00 | 0.00 | 0.00 | 84 | 1006.0 |
| 20260509113005 | 49 | 155 | 0.0 | 0.0 | 0.00 | 0.00 | 0.00 | 84 | 1006.0 |
| 20260509112505 | 48 | 152 | 0.0 | 0.0 | 0.00 | 0.00 | 0.00 | 85 | 1006.0 |
| 20260509112002 | 48 | 153 | 0.0 | 0.0 | 0.00 | 0.00 | 0.00 | 85 | 1005.9 |
| 20260509111501 | 47 | 155 | 0.0 | 0.0 | 0.00 | 0.00 | 0.00 | 85 | 1006.1 |
| 20260509111100 | 47 | 155 | 0.0 | 0.0 | 0.00 | 0.00 | 0.00 | 85 | 1006.2 |
| 20260509110558 | 46 | 155 | 0.0 | 0.0 | 0.00 | 0.00 | 0.00 | 85 | 1006.2 |
| 20260509105556 | 46 | 155 | 0.0 | 0.0 | 0.00 | 0.00 | 0.00 | 85 | 1006.3 |
| 20260509105056 | 45 | 155 | 0.0 | 0.0 | 0.00 | 0.00 | 0.00 | 85 | 1006.5 |
| 20260509104556 | 45 | 155 | 0.0 | 0.0 | 0.00 | 0.00 | 0.00 | 85 | 1006.4 |
| 20260509104056 | 45 | 155 | 0.0 | 0.0 | 0.00 | 0.00 | 0.00 | 85 | 1006.3 |
| 20260509103555 | 45 | 155 | 0.0 | 0.0 | 0.00 | 0.00 | 0.00 | 85 | 1006.3 |
| 20260509103102 | 45 | 155 | 0.0 | 0.0 | 0.00 | 0.00 | 0.00 | 85 | 1006.2 |
| 20260509102556 | 45 | 155 | 0.0 | 0.0 | 0.00 | 0.00 | 0.00 | 85 | 1006.2 |
| 20260509102057 | 44 | 155 | 0.0 | 0.0 | 0.00 | 0.00 | 0.00 | 85 | 1006.2 |
| 20260509101600 | 44 | 155 | 0.0 | 0.0 | 0.00 | 0.00 | 0.00 | 85 | 1006.2 |
| 20260509101054 | 43 | 155 | 0.0 | 0.0 | 0.00 | 0.00 | 0.00 | 83 | 1006.2 |
| 20260509100554 | 43 | 155 | 0.0 | 0.0 | 0.00 | 0.00 | 0.00 | 83 | 1006.2 |
| 20260509100054 | 43 | 155 | 0.0 | 0.0 | 0.00 | 0.00 | 0.00 | 82 | 1006.1 |
| 20260509095554 | 43 | 155 | 0.0 | 0.0 | 0.00 | 0.00 | 0.00 | 82 | 1006.1 |
| 20260509095053 | 43 | 155 | 0.0 | 0.0 | 0.00 | 0.00 | 0.00 | 82 | 1006.1 |
| 20260509094553 | 43 | 155 | 0.0 | 0.0 | 0.00 | 0.00 | 0.00 | 82 | 1006.1 |
| 20260509094053 | 43 | 155 | 0.0 | 0.0 | 0.00 | 0.00 | 0.00 | 81 | 1006.2 |
| 20260509093552 | 43 | 155 | 0.0 | 0.0 | 0.00 | 0.00 | 0.00 | 80 | 1006.1 |
| 20260509093055 | 43 | 155 | 0.0 | 0.0 | 0.00 | 0.00 | 0.00 | 80 | 1006.2 |
| 20260509092553 | 44 | 155 | 0.0 | 0.0 | 0.00 | 0.00 | 0.00 | 79 | 1006.2 |
| 20260509092052 | 44 | 155 | 0.0 | 0.0 | 0.00 | 0.00 | 0.00 | 79 | 1006.2 |
| 20260509091617 | 44 | 155 | 0.0 | 0.0 | 0.00 | 0.00 | 0.00 | 79 | 1006.2 |
| 20260509091052 | 45 | 155 | 0.0 | 0.0 | 0.00 | 0.00 | 0.00 | 79 | 1006.1 |
| 20260509090553 | 45 | 155 | 0.0 | 0.0 | 0.00 | 0.00 | 0.00 | 79 | 1006.2 |
| 20260509090050 | 45 | 155 | 0.0 | 0.0 | 0.00 | 0.00 | 0.00 | 78 | 1006.2 |
| 20260509085549 | 45 | 155 | 0.0 | 0.0 | 0.00 | 0.00 | 0.00 | 78 | 1006.3 |
| 20260509085049 | 45 | 155 | 0.0 | 0.0 | 0.00 | 0.00 | 0.00 | 77 | 1006.3 |
| 20260509084550 | 45 | 155 | 0.0 | 0.0 | 0.00 | 0.00 | 0.00 | 76 | 1006.4 |
| 20260509084049 | 45 | 155 | 0.0 | 0.0 | 0.00 | 0.00 | 0.00 | 76 | 1006.4 |
| 20260509083548 | 45 | 155 | 0.0 | 0.0 | 0.00 | 0.00 | 0.00 | 76 | 1006.4 |
| 20260509083052 | 45 | 155 | 0.0 | 0.0 | 0.00 | 0.00 | 0.00 | 75 | 1006.4 |
| 20260509082548 | 45 | 155 | 0.0 | 0.0 | 0.00 | 0.00 | 0.00 | 75 | 1006.4 |
| 20260509082051 | 45 | 155 | 0.0 | 0.0 | 0.00 | 0.00 | 0.00 | 75 | 1006.4 |
| 20260509081547 | 45 | 155 | 0.0 | 0.0 | 0.00 | 0.00 | 0.00 | 74 | 1006.3 |
| 20260509081045 | 45 | 155 | 0.0 | 0.0 | 0.00 | 0.00 | 0.00 | 74 | 1006.4 |
| 20260509080547 | 45 | 152 | 0.0 | 0.0 | 0.00 | 0.00 | 0.00 | 73 | 1006.5 |
| 20260509080051 | 45 | 152 | 0.0 | 0.0 | 0.00 | 0.00 | 0.00 | 73 | 1006.4 |
| 20260509075545 | 45 | 152 | 0.0 | 0.0 | 0.00 | 0.00 | 0.00 | 72 | 1006.6 |
| 20260509075045 | 45 | 152 | 0.0 | 0.0 | 0.00 | 0.00 | 0.00 | 71 | 1006.6 |
| 20260509074551 | 45 | 152 | 0.0 | 0.0 | 0.00 | 0.00 | 0.00 | 71 | 1006.6 |
| 20260509074043 | 45 | 152 | 0.0 | 0.0 | 0.00 | 0.00 | 0.00 | 70 | 1006.7 |
| 20260509073544 | 45 | 150 | 0.0 | 0.0 | 0.00 | 0.00 | 0.00 | 70 | 1006.7 |
| 20260509073113 | 45 | 148 | 0.0 | 0.0 | 0.00 | 0.00 | 0.00 | 69 | 1006.7 |
| 20260509072546 | 45 | 151 | 0.0 | 0.0 | 0.00 | 0.00 | 0.00 | 69 | 1006.7 |
| 20260509072041 | 45 | 151 | 0.0 | 0.0 | 0.00 | 0.00 | 0.00 | 69 | 1006.8 |
| 20260509071541 | 45 | 150 | 0.0 | 0.0 | 0.00 | 0.00 | 0.00 | 69 | 1006.9 |
| 20260509071039 | 45 | 142 | 0.0 | 0.0 | 0.00 | 0.00 | 0.00 | 70 | 1006.9 |
| 20260509070541 | 44 | 154 | 0.0 | 0.0 | 0.00 | 0.00 | 0.00 | 70 | 1006.9 |
| 20260509070038 | 44 | 177 | 0.0 | 0.0 | 0.00 | 0.00 | 0.00 | 71 | 1006.9 |
| 20260509065537 | 43 | 177 | 0.0 | 0.0 | 0.00 | 0.00 | 0.00 | 71 | 1007.0 |
| 20260509065036 | 43 | 177 | 0.0 | 0.0 | 0.00 | 0.00 | 0.00 | 70 | 1007.0 |
| 20260509064537 | 44 | 177 | 0.0 | 0.0 | 0.00 | 0.00 | 0.00 | 70 | 1007.1 |
| 20260509064035 | 44 | 177 | 0.0 | 0.0 | 0.00 | 0.00 | 0.00 | 70 | 1007.1 |
| 20260509063534 | 44 | 177 | 0.0 | 0.0 | 0.00 | 0.00 | 0.00 | 69 | 1007.2 |
| 20260509063035 | 44 | 177 | 0.0 | 0.0 | 0.00 | 0.00 | 0.00 | 69 | 1007.3 |
| 20260509062534 | 44 | 177 | 0.0 | 0.0 | 0.00 | 0.00 | 0.00 | 69 | 1007.3 |
| 20260509062033 | 44 | 177 | 0.0 | 0.0 | 0.00 | 0.00 | 0.00 | 69 | 1007.4 |
| 20260509061534 | 44 | 177 | 0.0 | 0.0 | 0.00 | 0.00 | 0.00 | 68 | 1007.5 |
| 20260509061032 | 44 | 177 | 0.0 | 0.0 | 0.00 | 0.00 | 0.00 | 68 | 1007.6 |
| 20260509060531 | 44 | 177 | 0.0 | 0.0 | 0.00 | 0.00 | 0.00 | 68 | 1007.7 |
| 20260509060042 | 44 | 196 | 0.0 | 0.0 | 0.00 | 0.00 | 0.00 | 68 | 1007.8 |
| 20260509055530 | 44 | 215 | 0.0 | 0.0 | 0.00 | 0.00 | 0.00 | 68 | 1007.9 |
| 20260509055033 | 44 | 221 | 0.0 | 0.0 | 0.00 | 0.00 | 0.00 | 68 | 1007.9 |
| 20260509054528 | 44 | 221 | 0.0 | 0.0 | 0.00 | 0.00 | 0.00 | 69 | 1007.9 |
| 20260509054028 | 43 | 221 | 0.0 | 0.0 | 0.00 | 0.00 | 0.00 | 69 | 1008.0 |
| 20260509053527 | 43 | 221 | 0.0 | 0.0 | 0.00 | 0.00 | 0.00 | 69 | 1008.1 |
| 20260509053032 | 43 | 222 | 0.0 | 0.0 | 0.00 | 0.00 | 0.00 | 69 | 1008.1 |
| 20260509052525 | 43 | 222 | 0.0 | 0.0 | 0.00 | 0.00 | 0.00 | 70 | 1008.2 |
| 20260509052025 | 43 | 222 | 0.0 | 0.0 | 0.00 | 0.00 | 0.00 | 70 | 1008.1 |
| 20260509051525 | 43 | 222 | 0.0 | 0.0 | 0.00 | 0.00 | 0.00 | 71 | 1008.2 |
| 20260509051023 | 42 | 222 | 0.0 | 0.0 | 0.00 | 0.00 | 0.00 | 72 | 1008.2 |
| 20260509050523 | 42 | 222 | 0.0 | 0.0 | 0.00 | 0.00 | 0.00 | 73 | 1008.3 |
| 20260509050022 | 42 | 222 | 0.0 | 0.0 | 0.00 | 0.00 | 0.00 | 73 | 1008.3 |
| 20260509045522 | 42 | 222 | 0.0 | 0.0 | 0.00 | 0.00 | 0.00 | 72 | 1008.3 |
| 20260509045020 | 42 | 222 | 0.0 | 0.0 | 0.00 | 0.00 | 0.00 | 72 | 1008.4 |
| 20260509044532 | 42 | 222 | 0.0 | 0.0 | 0.00 | 0.00 | 0.00 | 72 | 1008.5 |
| 20260509044021 | 42 | 222 | 0.0 | 0.0 | 0.00 | 0.00 | 0.00 | 72 | 1008.4 |
| 20260509043518 | 42 | 222 | 0.0 | 0.0 | 0.00 | 0.00 | 0.00 | 71 | 1008.5 |
| 20260509043024 | 42 | 222 | 0.0 | 0.0 | 0.00 | 0.00 | 0.00 | 70 | 1008.6 |
| 20260509042517 | 42 | 222 | 0.0 | 0.0 | 0.00 | 0.00 | 0.00 | 70 | 1008.7 |
| 20260509042018 | 42 | 222 | 0.0 | 0.0 | 0.00 | 0.00 | 0.00 | 69 | 1008.7 |
| 20260509041517 | 42 | 222 | 0.0 | 0.0 | 0.00 | 0.00 | 0.00 | 69 | 1008.8 |
| 20260509041016 | 42 | 222 | 0.0 | 0.0 | 0.00 | 0.00 | 0.00 | 69 | 1008.7 |
| 20260509040515 | 42 | 222 | 0.0 | 0.0 | 0.00 | 0.00 | 0.00 | 69 | 1008.6 |
| 20260509040014 | 42 | 222 | 0.0 | 0.0 | 0.00 | 0.00 | 0.00 | 69 | 1008.7 |
| 20260509035514 | 42 | 222 | 0.0 | 0.0 | 0.00 | 0.00 | 0.08 | 69 | 1008.8 |
| 20260509035015 | 42 | 222 | 0.0 | 0.0 | 0.00 | 0.00 | 0.08 | 69 | 1008.8 |
| 20260509034514 | 42 | 222 | 0.0 | 0.0 | 0.00 | 0.00 | 0.08 | 69 | 1009.0 |
| 20260509034017 | 42 | 222 | 0.0 | 0.0 | 0.00 | 0.00 | 0.08 | 69 | 1009.0 |
| 20260509033515 | 42 | 222 | 0.0 | 0.0 | 0.00 | 0.00 | 0.08 | 69 | 1009.0 |
| 20260509033014 | 42 | 222 | 0.0 | 0.0 | 0.00 | 0.00 | 0.08 | 68 | 1008.9 |
| 20260509032515 | 43 | 222 | 0.0 | 0.0 | 0.00 | 0.00 | 0.08 | 68 | 1009.1 |
| 20260509032014 | 43 | 222 | 0.0 | 0.0 | 0.00 | 0.00 | 0.08 | 67 | 1009.0 |
| 20260509031517 | 43 | 222 | 0.0 | 0.0 | 0.00 | 0.00 | 0.08 | 67 | 1009.1 |
| 20260509031013 | 43 | 222 | 0.0 | 0.0 | 0.00 | 0.00 | 0.08 | 67 | 1009.2 |
| 20260509030513 | 43 | 222 | 0.0 | 0.0 | 0.00 | 0.00 | 0.08 | 66 | 1009.2 |
| 20260509030012 | 43 | 222 | 0.0 | 0.0 | 0.00 | 0.00 | 0.08 | 66 | 1009.2 |
| 20260509025513 | 43 | 222 | 0.0 | 0.0 | 0.00 | 0.00 | 0.08 | 65 | 1009.2 |
| 20260509025012 | 44 | 222 | 0.0 | 0.0 | 0.00 | 0.00 | 0.08 | 64 | 1009.2 |
| 20260509024514 | 44 | 222 | 0.0 | 0.0 | 0.00 | 0.00 | 0.08 | 64 | 1009.2 |